createdAt,value
2023-04-30T00:00:37.071Z,0.54
2023-04-30T00:01:37.171Z,0.56
2023-04-30T00:02:37.234Z,0.55
2023-04-30T00:03:37.339Z,0.57
2023-04-30T00:04:38.197Z,0.54
2023-04-30T00:05:37.217Z,0.54
2023-04-30T00:06:37.255Z,0.52
2023-04-30T00:07:37.263Z,0.53
2023-04-30T00:08:38.184Z,0.54
2023-04-30T00:09:37.308Z,0.55
2023-04-30T00:10:37.694Z,0.56
2023-04-30T00:11:37.352Z,0.55
2023-04-30T00:12:37.387Z,0.54
2023-04-30T00:13:37.432Z,0.54
2023-04-30T00:14:37.430Z,0.55
2023-04-30T00:15:37.481Z,0.54
2023-04-30T00:16:37.544Z,0.54
2023-04-30T00:17:37.629Z,0.54
2023-04-30T00:18:37.648Z,0.56
2023-04-30T00:19:37.614Z,0.54
2023-04-30T00:20:37.614Z,0.53
2023-04-30T00:21:37.637Z,0.58
2023-04-30T00:22:37.692Z,0.57
2023-04-30T00:23:37.720Z,0.55
2023-04-30T00:24:37.756Z,0.56
2023-04-30T00:25:37.804Z,0.54
2023-04-30T00:26:37.810Z,0.53
2023-04-30T00:27:39.439Z,0.57
2023-04-30T00:28:37.802Z,0.55
2023-04-30T00:29:37.828Z,0.56
2023-04-30T00:30:38.203Z,0.55
2023-04-30T00:31:37.877Z,0.52
2023-04-30T00:32:37.865Z,0.53
2023-04-30T00:33:37.768Z,0.56
2023-04-30T00:34:37.752Z,0.55
2023-04-30T00:35:38.213Z,0.55
2023-04-30T00:36:37.782Z,0.56
2023-04-30T00:37:37.759Z,0.54
2023-04-30T00:38:37.759Z,0.53
2023-04-30T00:39:37.730Z,0.52
2023-04-30T00:40:37.720Z,0.53
2023-04-30T00:41:37.726Z,0.55
2023-04-30T00:42:37.697Z,0.55
2023-04-30T00:43:37.776Z,0.52
2023-04-30T00:44:37.683Z,0.54
2023-04-30T00:45:37.795Z,0.56
2023-04-30T00:46:37.670Z,0.54
2023-04-30T00:47:37.698Z,0.53
2023-04-30T00:48:37.702Z,0.55
2023-04-30T00:49:37.756Z,0.54
2023-04-30T00:50:38.243Z,0.52
2023-04-30T00:51:37.731Z,0.53
2023-04-30T00:52:37.813Z,0.52
2023-04-30T00:53:37.847Z,0.52
2023-04-30T00:54:37.820Z,0.54
2023-04-30T00:55:37.865Z,0.54
2023-04-30T00:56:38.215Z,0.54
2023-04-30T00:57:37.945Z,0.53
2023-04-30T00:58:37.960Z,0.54
2023-04-30T00:59:38.678Z,0.53
2023-04-30T01:00:38.051Z,0.54
2023-04-30T01:01:38.065Z,0.53
2023-04-30T01:02:38.139Z,0.53
2023-04-30T01:03:38.114Z,0.54
2023-04-30T01:04:38.138Z,0.54
2023-04-30T01:05:38.142Z,0.54
2023-04-30T01:06:38.239Z,0.54
2023-04-30T01:07:38.222Z,0.55
2023-04-30T01:08:38.205Z,0.55
2023-04-30T01:09:38.234Z,0.55
2023-04-30T01:10:38.291Z,0.55
2023-04-30T01:11:38.283Z,0.54
2023-04-30T01:12:38.335Z,0.53
2023-04-30T01:13:38.361Z,0.54
2023-04-30T01:14:38.406Z,0.53
2023-04-30T01:15:38.413Z,0.55
2023-04-30T01:16:38.457Z,0.55
2023-04-30T01:17:38.506Z,0.53
2023-04-30T01:18:39.311Z,0.54
2023-04-30T01:19:38.565Z,0.54
2023-04-30T01:20:38.589Z,0.54
2023-04-30T01:21:38.600Z,0.53
2023-04-30T01:22:38.629Z,0.54
2023-04-30T01:23:38.668Z,0.54
2023-04-30T01:24:38.789Z,0.54
2023-04-30T01:25:38.785Z,0.51
2023-04-30T01:26:38.834Z,0.54
2023-04-30T01:27:38.805Z,0.51
2023-04-30T01:28:38.824Z,0.52
2023-04-30T01:29:38.903Z,0.54
2023-04-30T01:30:38.933Z,0.55
2023-04-30T01:31:39.018Z,0.53
2023-04-30T01:32:39.019Z,0.53
2023-04-30T01:33:39.009Z,0.53
2023-04-30T01:34:39.019Z,0.54
2023-04-30T01:35:39.066Z,0.53
2023-04-30T01:36:39.071Z,0.55
2023-04-30T01:37:39.118Z,0.53
2023-04-30T01:38:39.172Z,0.53
2023-04-30T01:39:39.178Z,0.53
2023-04-30T01:40:39.249Z,0.54
2023-04-30T01:41:39.255Z,0.54
2023-04-30T01:42:39.283Z,0.56
2023-04-30T01:43:39.302Z,0.56
2023-04-30T01:44:39.350Z,0.54
2023-04-30T01:45:39.374Z,0.54
2023-04-30T01:46:39.454Z,0.53
2023-04-30T01:47:39.521Z,0.54
2023-04-30T01:48:39.489Z,0.53
2023-04-30T01:49:40.501Z,0.53
2023-04-30T01:50:39.481Z,0.53
2023-04-30T01:51:39.454Z,0.53
2023-04-30T01:52:39.471Z,0.54
2023-04-30T01:53:39.455Z,0.53
2023-04-30T01:54:39.444Z,0.54
2023-04-30T01:55:39.433Z,0.53
2023-04-30T01:56:39.413Z,0.54
2023-04-30T01:57:39.436Z,0.54
2023-04-30T01:58:39.407Z,0.54
2023-04-30T01:59:39.372Z,0.53
2023-04-30T02:00:39.374Z,0.54
2023-04-30T02:01:39.437Z,0.54
2023-04-30T02:02:39.500Z,0.53
2023-04-30T02:03:39.602Z,0.53
2023-04-30T02:04:39.505Z,0.53
2023-04-30T02:05:39.514Z,0.55
2023-04-30T02:06:39.807Z,0.54
2023-04-30T02:07:39.558Z,0.51
2023-04-30T02:08:39.603Z,0.53
2023-04-30T02:09:39.652Z,0.52
2023-04-30T02:10:39.695Z,0.52
2023-04-30T02:11:39.723Z,0.53
2023-04-30T02:12:39.778Z,0.51
2023-04-30T02:13:39.777Z,0.52
2023-04-30T02:14:39.822Z,0.53
2023-04-30T02:15:39.839Z,0.53
2023-04-30T02:16:40.039Z,0.52
2023-04-30T02:17:39.921Z,0.53
2023-04-30T02:18:39.951Z,0.53
2023-04-30T02:19:39.988Z,0.52
2023-04-30T02:20:39.994Z,0.53
2023-04-30T02:21:40.060Z,0.53
2023-04-30T02:22:40.076Z,0.53
2023-04-30T02:23:40.128Z,0.56
2023-04-30T02:24:40.119Z,0.53
2023-04-30T02:25:40.174Z,0.52
2023-04-30T02:26:40.213Z,0.56
2023-04-30T02:27:40.248Z,0.54
2023-04-30T02:28:40.253Z,0.52
2023-04-30T02:29:40.297Z,0.54
2023-04-30T02:30:40.330Z,0.53
2023-04-30T02:31:40.859Z,0.52
2023-04-30T02:32:40.421Z,0.52
2023-04-30T02:33:41.350Z,0.52
2023-04-30T02:34:40.372Z,0.53
2023-04-30T02:35:40.370Z,0.53
2023-04-30T02:36:40.343Z,0.52
2023-04-30T02:37:40.351Z,0.53
2023-04-30T02:38:40.363Z,0.53
2023-04-30T02:39:40.324Z,0.53
2023-04-30T02:40:40.349Z,0.54
2023-04-30T02:41:41.344Z,0.54
2023-04-30T02:42:40.291Z,0.53
2023-04-30T02:43:40.304Z,0.54
2023-04-30T02:44:40.333Z,0.53
2023-04-30T02:45:40.296Z,0.54
2023-04-30T02:46:40.737Z,0.54
2023-04-30T02:47:40.337Z,0.54
2023-04-30T02:48:40.300Z,0.55
2023-04-30T02:49:40.310Z,0.54
2023-04-30T02:50:40.241Z,0.53
2023-04-30T02:51:40.256Z,0.54
2023-04-30T02:52:40.247Z,0.51
2023-04-30T02:53:40.299Z,0.52
2023-04-30T02:54:40.327Z,0.52
2023-04-30T02:55:40.334Z,0.54
2023-04-30T02:56:40.765Z,0.53
2023-04-30T02:57:40.440Z,0.53
2023-04-30T02:58:40.489Z,0.55
2023-04-30T02:59:40.508Z,0.54
2023-04-30T03:00:40.561Z,0.54
2023-04-30T03:01:40.648Z,0.53
2023-04-30T03:02:40.802Z,0.52
2023-04-30T03:03:40.709Z,0.53
2023-04-30T03:04:40.734Z,0.53
2023-04-30T03:05:40.742Z,0.52
2023-04-30T03:06:41.278Z,0.54
2023-04-30T03:07:40.798Z,0.53
2023-04-30T03:08:40.810Z,0.52
2023-04-30T03:09:40.876Z,0.52
2023-04-30T03:10:40.929Z,0.52
2023-04-30T03:11:40.946Z,0.53
2023-04-30T03:12:40.975Z,0.53
2023-04-30T03:13:41.028Z,0.53
2023-04-30T03:14:41.060Z,0.53
2023-04-30T03:15:41.101Z,0.55
2023-04-30T03:16:41.429Z,0.53
2023-04-30T03:17:42.173Z,0.53
2023-04-30T03:18:41.342Z,0.53
2023-04-30T03:19:41.400Z,0.53
2023-04-30T03:20:41.439Z,0.52
2023-04-30T03:21:41.489Z,0.53
2023-04-30T03:22:41.522Z,0.52
2023-04-30T03:23:41.578Z,0.52
2023-04-30T03:24:41.617Z,0.54
2023-04-30T03:25:41.617Z,0.53
2023-04-30T03:26:41.658Z,0.53
2023-04-30T03:27:41.694Z,0.54
2023-04-30T03:28:41.734Z,0.54
2023-04-30T03:29:41.742Z,0.53
2023-04-30T03:30:41.804Z,0.52
2023-04-30T03:31:41.864Z,0.53
2023-04-30T03:32:41.944Z,0.53
2023-04-30T03:33:41.971Z,0.54
2023-04-30T03:34:41.943Z,0.54
2023-04-30T03:35:41.993Z,0.53
2023-04-30T03:36:42.043Z,0.52
2023-04-30T03:37:42.136Z,0.53
2023-04-30T03:38:42.107Z,0.52
2023-04-30T03:39:42.128Z,0.52
2023-04-30T03:40:42.227Z,0.52
2023-04-30T03:41:42.315Z,0.53
2023-04-30T03:42:42.296Z,0.52
2023-04-30T03:43:42.274Z,0.54
2023-04-30T03:44:42.342Z,0.53
2023-04-30T03:45:42.462Z,0.52
2023-04-30T03:46:42.426Z,0.52
2023-04-30T03:47:42.459Z,0.51
2023-04-30T03:48:42.454Z,0.51
2023-04-30T03:49:42.489Z,0.53
2023-04-30T03:50:42.560Z,0.53
2023-04-30T03:51:42.582Z,0.53
2023-04-30T03:52:42.638Z,0.52
2023-04-30T03:53:42.661Z,0.53
2023-04-30T03:54:42.730Z,0.53
2023-04-30T03:55:42.718Z,0.53
2023-04-30T03:56:42.759Z,0.53
2023-04-30T03:57:42.811Z,0.52
2023-04-30T03:58:42.870Z,0.52
2023-04-30T03:59:42.832Z,0.53
2023-04-30T04:00:42.887Z,0.53
2023-04-30T04:01:42.961Z,0.53
2023-04-30T04:02:43.033Z,0.53
2023-04-30T04:03:43.048Z,0.52
2023-04-30T04:04:43.060Z,0.53
2023-04-30T04:05:43.112Z,0.53
2023-04-30T04:06:43.288Z,0.52
2023-04-30T04:07:43.146Z,0.52
2023-04-30T04:08:43.306Z,0.53
2023-04-30T04:09:43.232Z,0.52
2023-04-30T04:10:43.301Z,0.53
2023-04-30T04:11:43.281Z,0.53
2023-04-30T04:12:43.349Z,0.50
2023-04-30T04:13:43.356Z,0.52
2023-04-30T04:14:43.415Z,0.51
2023-04-30T04:15:43.463Z,0.53
2023-04-30T04:16:43.534Z,0.50
2023-04-30T04:17:43.573Z,0.52
2023-04-30T04:18:43.566Z,0.54
2023-04-30T04:19:43.617Z,0.53
2023-04-30T04:20:43.655Z,0.53
2023-04-30T04:21:44.272Z,0.53
2023-04-30T04:22:43.729Z,0.53
2023-04-30T04:23:43.748Z,0.51
2023-04-30T04:24:43.805Z,0.53
2023-04-30T04:25:43.854Z,0.53
2023-04-30T04:26:45.060Z,0.53
2023-04-30T04:27:43.901Z,0.52
2023-04-30T04:28:43.944Z,0.54
2023-04-30T04:29:43.977Z,0.52
2023-04-30T04:30:44.029Z,0.52
2023-04-30T04:31:44.297Z,0.53
2023-04-30T04:33:44.152Z,0.53
2023-04-30T04:34:44.186Z,0.52
2023-04-30T04:36:44.277Z,0.54
2023-04-30T04:37:44.316Z,0.53
2023-04-30T04:38:44.363Z,0.53
2023-04-30T04:39:44.391Z,0.53
2023-04-30T04:40:44.434Z,0.54
2023-04-30T04:41:44.443Z,0.52
2023-04-30T04:42:44.535Z,0.53
2023-04-30T04:43:44.560Z,0.53
2023-04-30T04:44:44.558Z,0.53
2023-04-30T04:45:44.609Z,0.54
2023-04-30T04:46:44.711Z,0.54
2023-04-30T04:47:44.736Z,0.54
2023-04-30T04:48:44.738Z,0.53
2023-04-30T04:49:44.739Z,0.53
2023-04-30T04:50:44.758Z,0.52
2023-04-30T04:51:44.812Z,0.53
2023-04-30T04:52:44.851Z,0.52
2023-04-30T04:53:44.890Z,0.52
2023-04-30T04:54:44.942Z,0.54
2023-04-30T04:55:44.964Z,0.53
2023-04-30T04:56:44.985Z,0.52
2023-04-30T04:57:45.114Z,0.52
2023-04-30T04:58:45.065Z,0.52
2023-04-30T04:59:45.124Z,0.51
2023-04-30T05:00:45.160Z,0.52
2023-04-30T05:01:45.232Z,0.53
2023-04-30T05:02:45.319Z,0.52
2023-04-30T05:03:45.333Z,0.53
2023-04-30T05:04:45.291Z,0.54
2023-04-30T05:05:45.328Z,0.53
2023-04-30T05:06:45.476Z,0.52
2023-04-30T05:07:45.448Z,0.52
2023-04-30T05:08:45.439Z,0.53
2023-04-30T05:09:45.456Z,0.52
2023-04-30T05:10:45.527Z,0.53
2023-04-30T05:11:45.578Z,0.51
2023-04-30T05:12:45.609Z,0.52
2023-04-30T05:13:45.663Z,0.52
2023-04-30T05:14:45.666Z,0.53
2023-04-30T05:15:45.763Z,0.52
2023-04-30T05:16:45.772Z,0.53
2023-04-30T05:17:45.804Z,0.53
2023-04-30T05:18:45.798Z,0.52
2023-04-30T05:19:45.867Z,0.52
2023-04-30T05:20:45.915Z,0.52
2023-04-30T05:21:45.952Z,0.53
2023-04-30T05:22:45.991Z,0.52
2023-04-30T05:23:46.036Z,0.53
2023-04-30T05:24:46.049Z,0.52
2023-04-30T05:25:46.084Z,0.52
2023-04-30T05:26:46.134Z,0.51
2023-04-30T05:27:46.151Z,0.52
2023-04-30T05:28:46.239Z,0.52
2023-04-30T05:29:46.251Z,0.52
2023-04-30T05:30:46.331Z,0.52
2023-04-30T05:31:46.413Z,0.51
2023-04-30T05:32:46.407Z,0.52
2023-04-30T05:33:46.444Z,0.52
2023-04-30T05:34:46.452Z,0.53
2023-04-30T05:35:46.494Z,0.53
2023-04-30T05:36:46.572Z,0.52
2023-04-30T05:37:46.589Z,0.52
2023-04-30T05:38:46.633Z,0.52
2023-04-30T05:39:46.688Z,0.51
2023-04-30T05:40:46.704Z,0.50
2023-04-30T05:41:46.767Z,0.52
2023-04-30T05:42:46.781Z,0.52
2023-04-30T05:43:46.818Z,0.52
2023-04-30T05:44:46.863Z,0.52
2023-04-30T05:45:46.965Z,0.52
2023-04-30T05:46:47.274Z,0.51
2023-04-30T05:47:47.023Z,0.52
2023-04-30T05:48:47.011Z,0.52
2023-04-30T05:49:47.078Z,0.52
2023-04-30T05:50:47.125Z,0.52
2023-04-30T05:51:47.312Z,0.52
2023-04-30T05:52:47.189Z,0.52
2023-04-30T05:53:47.250Z,0.53
2023-04-30T05:54:49.397Z,0.52
2023-04-30T05:55:47.276Z,0.52
2023-04-30T05:56:47.299Z,0.52
2023-04-30T05:57:47.271Z,0.51
2023-04-30T05:58:47.252Z,0.53
2023-04-30T05:59:47.286Z,0.52
2023-04-30T06:00:47.255Z,0.52
2023-04-30T06:01:47.315Z,0.52
2023-04-30T06:02:47.293Z,0.53
2023-04-30T06:03:47.224Z,0.52
2023-04-30T06:04:47.219Z,0.50
2023-04-30T06:05:47.361Z,0.52
2023-04-30T06:06:47.266Z,0.52
2023-04-30T06:07:47.192Z,0.52
2023-04-30T06:08:47.171Z,0.51
2023-04-30T06:09:47.161Z,0.52
2023-04-30T06:10:47.192Z,0.51
2023-04-30T06:11:47.175Z,0.51
2023-04-30T06:12:47.161Z,0.52
2023-04-30T06:13:47.127Z,0.52
2023-04-30T06:14:47.117Z,0.50
2023-04-30T06:15:47.156Z,0.52
2023-04-30T06:16:47.227Z,0.51
2023-04-30T06:17:47.171Z,0.52
2023-04-30T06:18:47.104Z,0.51
2023-04-30T06:19:47.127Z,0.52
2023-04-30T06:20:47.082Z,0.52
2023-04-30T06:21:47.124Z,0.50
2023-04-30T06:22:47.103Z,0.51
2023-04-30T06:23:47.070Z,0.51
2023-04-30T06:24:47.072Z,0.51
2023-04-30T06:25:47.053Z,0.51
2023-04-30T06:26:47.072Z,0.51
2023-04-30T06:27:47.067Z,0.50
2023-04-30T06:28:47.035Z,0.51
2023-04-30T06:29:47.046Z,0.51
2023-04-30T06:30:47.012Z,0.51
2023-04-30T06:31:47.124Z,0.51
2023-04-30T06:32:47.029Z,0.52
2023-04-30T06:33:47.014Z,0.51
2023-04-30T06:34:47.001Z,0.51
2023-04-30T06:35:47.037Z,0.51
2023-04-30T06:36:46.983Z,0.51
2023-04-30T06:37:47.012Z,0.51
2023-04-30T06:38:46.959Z,0.51
2023-04-30T06:39:46.984Z,0.51
2023-04-30T06:40:46.966Z,0.53
2023-04-30T06:41:46.987Z,0.52
2023-04-30T06:42:47.824Z,0.51
2023-04-30T06:43:46.942Z,0.50
2023-04-30T06:44:46.951Z,0.51
2023-04-30T06:45:47.013Z,0.51
2023-04-30T06:46:46.936Z,0.53
2023-04-30T06:47:47.005Z,0.52
2023-04-30T06:48:46.968Z,0.52
2023-04-30T06:49:47.002Z,0.51
2023-04-30T06:50:47.067Z,0.50
2023-04-30T06:51:47.125Z,0.52
2023-04-30T06:52:47.149Z,0.52
2023-04-30T06:53:47.171Z,0.53
2023-04-30T06:54:47.222Z,0.54
2023-04-30T06:55:47.281Z,0.52
2023-04-30T06:56:47.303Z,0.52
2023-04-30T06:57:47.349Z,0.52
2023-04-30T06:58:47.348Z,0.51
2023-04-30T06:59:47.439Z,0.52
2023-04-30T07:00:47.465Z,0.50
2023-04-30T07:01:47.853Z,0.52
2023-04-30T07:02:47.592Z,0.52
2023-04-30T07:03:47.676Z,0.53
2023-04-30T07:04:47.622Z,0.53
2023-04-30T07:05:47.736Z,0.52
2023-04-30T07:06:47.696Z,0.52
2023-04-30T07:07:47.722Z,0.52
2023-04-30T07:08:47.761Z,0.52
2023-04-30T07:09:49.587Z,0.53
2023-04-30T07:10:47.772Z,0.52
2023-04-30T07:11:47.778Z,0.51
2023-04-30T07:12:47.771Z,0.51
2023-04-30T07:13:47.745Z,0.52
2023-04-30T07:14:47.739Z,0.51
2023-04-30T07:15:47.748Z,0.51
2023-04-30T07:16:47.749Z,0.51
2023-04-30T07:17:47.865Z,0.52
2023-04-30T07:18:47.720Z,0.50
2023-04-30T07:19:47.706Z,0.53
2023-04-30T07:20:47.714Z,0.52
2023-04-30T07:21:47.704Z,0.51
2023-04-30T07:22:47.698Z,0.53
2023-04-30T07:23:47.691Z,0.52
2023-04-30T07:24:47.677Z,0.54
2023-04-30T07:25:47.675Z,0.52
2023-04-30T07:26:47.641Z,0.52
2023-04-30T07:27:47.631Z,0.50
2023-04-30T07:28:47.620Z,0.52
2023-04-30T07:29:47.649Z,0.53
2023-04-30T07:30:47.646Z,0.52
2023-04-30T07:31:47.667Z,0.53
2023-04-30T07:32:47.701Z,0.53
2023-04-30T07:33:47.629Z,0.54
2023-04-30T07:34:47.578Z,0.53
2023-04-30T07:35:47.554Z,0.53
2023-04-30T07:36:47.618Z,0.54
2023-04-30T07:37:47.631Z,0.55
2023-04-30T07:38:47.543Z,0.54
2023-04-30T07:39:47.549Z,0.53
2023-04-30T07:40:47.519Z,0.52
2023-04-30T07:41:47.521Z,0.53
2023-04-30T07:42:47.845Z,0.55
2023-04-30T07:43:47.551Z,0.53
2023-04-30T07:44:47.505Z,0.51
2023-04-30T07:45:47.543Z,0.52
2023-04-30T07:46:47.516Z,0.52
2023-04-30T07:47:47.533Z,0.52
2023-04-30T07:48:47.505Z,0.53
2023-04-30T07:49:47.468Z,0.53
2023-04-30T07:50:47.469Z,0.51
2023-04-30T07:51:47.478Z,0.51
2023-04-30T07:52:47.867Z,0.52
2023-04-30T07:53:47.431Z,0.52
2023-04-30T07:54:47.444Z,0.52
2023-04-30T07:55:47.463Z,0.53
2023-04-30T07:56:47.419Z,0.53
2023-04-30T07:57:47.408Z,0.55
2023-04-30T07:58:47.410Z,0.54
2023-04-30T07:59:50.214Z,0.52
2023-04-30T08:00:47.422Z,0.52
2023-04-30T08:01:47.428Z,0.52
2023-04-30T08:02:47.479Z,0.51
2023-04-30T08:03:47.408Z,0.52
2023-04-30T08:04:47.391Z,0.50
2023-04-30T08:05:47.376Z,0.51
2023-04-30T08:06:47.463Z,0.52
2023-04-30T08:07:47.364Z,0.51
2023-04-30T08:08:48.190Z,0.50
2023-04-30T08:09:47.299Z,0.52
2023-04-30T08:10:47.337Z,0.56
2023-04-30T08:11:47.314Z,0.52
2023-04-30T08:12:47.286Z,0.54
2023-04-30T08:13:47.266Z,0.51
2023-04-30T08:14:47.327Z,0.52
2023-04-30T08:15:47.273Z,0.52
2023-04-30T08:16:47.275Z,0.52
2023-04-30T08:17:47.258Z,0.52
2023-04-30T08:18:47.263Z,0.51
2023-04-30T08:19:47.242Z,0.52
2023-04-30T08:20:47.280Z,0.53
2023-04-30T08:21:47.236Z,0.53
2023-04-30T08:22:47.242Z,0.53
2023-04-30T08:23:47.244Z,0.52
2023-04-30T08:24:47.214Z,0.53
2023-04-30T08:25:47.212Z,0.51
2023-04-30T08:26:47.192Z,0.52
2023-04-30T08:27:47.195Z,0.52
2023-04-30T08:28:47.204Z,0.54
2023-04-30T08:29:47.199Z,0.54
2023-04-30T08:30:47.189Z,0.54
2023-04-30T08:31:47.211Z,0.53
2023-04-30T08:32:47.213Z,0.53
2023-04-30T08:33:47.136Z,0.53
2023-04-30T08:34:47.147Z,0.53
2023-04-30T08:35:47.141Z,0.53
2023-04-30T08:36:47.121Z,0.53
2023-04-30T08:37:47.149Z,0.54
2023-04-30T08:38:47.106Z,0.54
2023-04-30T08:39:47.113Z,0.50
2023-04-30T08:40:51.669Z,0.52
2023-04-30T08:41:48.131Z,0.52
2023-04-30T08:42:47.167Z,0.52
2023-04-30T08:43:47.164Z,0.52
2023-04-30T08:44:47.148Z,0.53
2023-04-30T08:45:47.136Z,0.54
2023-04-30T08:46:47.112Z,0.50
2023-04-30T08:47:47.133Z,0.53
2023-04-30T08:48:47.102Z,0.55
2023-04-30T08:49:47.361Z,0.53
2023-04-30T08:50:47.083Z,0.55
2023-04-30T08:51:47.083Z,0.52
2023-04-30T08:52:47.055Z,0.52
2023-04-30T08:53:47.068Z,0.57
2023-04-30T08:54:47.035Z,0.53
2023-04-30T08:55:47.056Z,0.53
2023-04-30T08:56:47.065Z,0.55
2023-04-30T08:57:47.071Z,0.54
2023-04-30T08:58:47.103Z,0.56
2023-04-30T08:59:47.181Z,0.53
2023-04-30T09:00:47.204Z,0.55
2023-04-30T09:01:47.256Z,0.52
2023-04-30T09:02:47.332Z,0.53
2023-04-30T09:03:47.427Z,0.54
2023-04-30T09:04:47.287Z,0.52
2023-04-30T09:05:47.332Z,0.54
2023-04-30T09:06:47.419Z,0.53
2023-04-30T09:08:47.445Z,0.54
2023-04-30T09:09:47.373Z,0.54
2023-04-30T09:10:47.361Z,0.58
2023-04-30T09:11:47.362Z,0.55
2023-04-30T09:12:47.354Z,0.55
2023-04-30T09:13:47.357Z,0.54
2023-04-30T09:14:47.307Z,0.54
2023-04-30T09:15:47.372Z,0.54
2023-04-30T09:16:47.296Z,0.56
2023-04-30T09:17:48.610Z,0.57
2023-04-30T09:18:47.299Z,0.55
2023-04-30T09:19:47.354Z,0.56
2023-04-30T09:20:47.276Z,0.58
2023-04-30T09:21:47.257Z,0.55
2023-04-30T09:22:47.277Z,0.57
2023-04-30T09:23:47.261Z,0.55
2023-04-30T09:24:47.251Z,0.56
2023-04-30T09:25:47.259Z,0.57
2023-04-30T09:26:47.238Z,0.53
2023-04-30T09:27:47.219Z,0.55
2023-04-30T09:28:47.230Z,0.53
2023-04-30T09:29:47.245Z,0.51
2023-04-30T09:30:47.227Z,0.55
2023-04-30T09:31:47.329Z,0.54
2023-04-30T09:32:47.273Z,0.53
2023-04-30T09:33:47.208Z,0.54
2023-04-30T09:34:47.168Z,0.55
2023-04-30T09:35:47.185Z,0.55
2023-04-30T09:36:47.179Z,0.54
2023-04-30T09:37:47.171Z,0.55
2023-04-30T09:38:47.143Z,0.54
2023-04-30T09:39:47.202Z,0.56
2023-04-30T09:40:47.173Z,0.54
2023-04-30T09:41:47.134Z,0.59
2023-04-30T09:42:47.155Z,0.58
2023-04-30T09:43:47.134Z,0.56
2023-04-30T09:44:47.139Z,0.56
2023-04-30T09:45:47.141Z,0.56
2023-04-30T09:46:47.131Z,0.55
2023-04-30T09:47:47.427Z,0.56
2023-04-30T09:48:47.086Z,0.55
2023-04-30T09:49:47.065Z,0.55
2023-04-30T09:50:47.086Z,0.53
2023-04-30T09:51:47.054Z,0.51
2023-04-30T09:52:47.087Z,0.54
2023-04-30T09:53:47.065Z,0.53
2023-04-30T09:54:47.062Z,0.54
2023-04-30T09:55:47.065Z,0.56
2023-04-30T09:56:47.032Z,0.54
2023-04-30T09:57:47.052Z,0.55
2023-04-30T09:58:47.035Z,0.52
2023-04-30T09:59:47.037Z,0.55
2023-04-30T10:00:47.083Z,0.55
2023-04-30T10:01:47.157Z,0.57
2023-04-30T10:02:47.076Z,0.54
2023-04-30T10:03:47.079Z,0.53
2023-04-30T10:04:47.097Z,0.53
2023-04-30T10:05:47.120Z,0.56
2023-04-30T10:06:47.126Z,0.56
2023-04-30T10:07:47.125Z,0.53
2023-04-30T10:08:47.134Z,0.57
2023-04-30T10:09:47.125Z,0.55
2023-04-30T10:10:47.165Z,0.54
2023-04-30T10:11:47.194Z,0.55
2023-04-30T10:12:47.385Z,0.57
2023-04-30T10:13:47.232Z,0.55
2023-04-30T10:14:47.253Z,0.56
2023-04-30T10:15:47.257Z,0.59
2023-04-30T10:16:47.347Z,0.52
2023-04-30T10:17:47.361Z,0.57
2023-04-30T10:18:47.329Z,0.58
2023-04-30T10:19:48.000Z,0.57
2023-04-30T10:20:47.374Z,0.54
2023-04-30T10:21:47.414Z,0.55
2023-04-30T10:22:47.416Z,0.54
2023-04-30T10:23:47.472Z,0.54
2023-04-30T10:24:47.476Z,0.57
2023-04-30T10:25:47.446Z,0.54
2023-04-30T10:26:47.504Z,0.55
2023-04-30T10:27:47.928Z,0.55
2023-04-30T10:28:47.521Z,0.51
2023-04-30T10:29:47.572Z,0.55
2023-04-30T10:30:47.650Z,0.54
2023-04-30T10:31:47.682Z,0.51
2023-04-30T10:32:47.661Z,0.53
2023-04-30T10:33:47.642Z,0.54
2023-04-30T10:34:47.663Z,0.53
2023-04-30T10:35:47.677Z,0.52
2023-04-30T10:36:47.701Z,0.53
2023-04-30T10:37:47.707Z,0.55
2023-04-30T10:38:48.563Z,0.54
2023-04-30T10:39:47.769Z,0.53
2023-04-30T10:40:47.793Z,0.53
2023-04-30T10:41:47.741Z,0.52
2023-04-30T10:42:47.828Z,0.53
2023-04-30T10:43:47.816Z,0.52
2023-04-30T10:44:47.839Z,0.53
2023-04-30T10:45:47.875Z,0.51
2023-04-30T10:46:47.852Z,0.51
2023-04-30T10:47:47.951Z,0.55
2023-04-30T10:48:47.925Z,0.51
2023-04-30T10:49:47.921Z,0.52
2023-04-30T10:50:47.919Z,0.52
2023-04-30T10:51:47.943Z,0.55
2023-04-30T10:52:47.980Z,0.53
2023-04-30T10:53:48.003Z,0.52
2023-04-30T10:54:48.032Z,0.53
2023-04-30T10:55:48.067Z,0.54
2023-04-30T10:56:48.063Z,0.56
2023-04-30T10:57:48.132Z,0.52
2023-04-30T10:58:48.092Z,0.54
2023-04-30T10:59:48.101Z,0.54
2023-04-30T11:00:48.150Z,0.53
2023-04-30T11:01:48.236Z,0.53
2023-04-30T11:02:48.232Z,0.53
2023-04-30T11:03:48.218Z,0.54
2023-04-30T11:04:48.249Z,0.52
2023-04-30T11:05:48.281Z,0.51
2023-04-30T11:06:48.373Z,0.54
2023-04-30T11:07:48.309Z,0.56
2023-04-30T11:08:48.279Z,0.53
2023-04-30T11:09:48.295Z,0.54
2023-04-30T11:10:48.300Z,0.56
2023-04-30T11:11:48.399Z,0.54
2023-04-30T11:12:48.354Z,0.55
2023-04-30T11:13:48.349Z,0.58
2023-04-30T11:14:48.382Z,0.58
2023-04-30T11:15:48.552Z,0.54
2023-04-30T11:16:48.412Z,0.58
2023-04-30T11:17:48.959Z,0.55
2023-04-30T11:18:48.477Z,0.55
2023-04-30T11:19:48.474Z,0.55
2023-04-30T11:20:48.497Z,0.54
2023-04-30T11:21:48.502Z,0.54
2023-04-30T11:22:48.556Z,0.54
2023-04-30T11:23:48.553Z,0.57
2023-04-30T11:24:48.586Z,0.51
2023-04-30T11:25:48.585Z,0.51
2023-04-30T11:26:48.598Z,0.52
2023-04-30T11:27:48.613Z,0.57
2023-04-30T11:28:48.701Z,0.55
2023-04-30T11:29:48.693Z,0.56
2023-04-30T11:30:48.706Z,0.54
2023-04-30T11:31:48.775Z,0.55
2023-04-30T11:32:48.761Z,0.52
2023-04-30T11:33:48.741Z,0.53
2023-04-30T11:34:48.737Z,0.55
2023-04-30T11:35:48.774Z,0.55
2023-04-30T11:36:48.746Z,0.54
2023-04-30T11:37:48.817Z,0.56
2023-04-30T11:38:48.812Z,0.54
2023-04-30T11:39:48.834Z,0.55
2023-04-30T11:40:48.855Z,0.55
2023-04-30T11:41:48.837Z,0.52
2023-04-30T11:42:48.892Z,0.55
2023-04-30T11:43:48.875Z,0.57
2023-04-30T11:44:48.908Z,0.53
2023-04-30T11:45:48.917Z,0.55
2023-04-30T11:46:48.919Z,0.54
2023-04-30T11:47:49.492Z,0.57
2023-04-30T11:48:48.939Z,0.55
2023-04-30T11:49:48.944Z,0.54
2023-04-30T11:50:49.010Z,0.56
2023-04-30T11:51:48.998Z,0.54
2023-04-30T11:52:48.993Z,0.55
2023-04-30T11:53:49.044Z,0.58
2023-04-30T11:54:49.061Z,0.55
2023-04-30T11:55:49.053Z,0.56
2023-04-30T11:56:49.068Z,0.57
2023-04-30T11:57:49.102Z,0.55
2023-04-30T11:58:49.097Z,0.56
2023-04-30T11:59:49.116Z,0.54
2023-04-30T12:00:49.127Z,0.54
2023-04-30T12:01:49.189Z,0.57
2023-04-30T12:02:49.292Z,0.56
2023-04-30T12:03:49.248Z,0.54
2023-04-30T12:04:49.212Z,0.57
2023-04-30T12:05:49.220Z,0.56
2023-04-30T12:06:49.376Z,0.53
2023-04-30T12:07:49.239Z,0.54
2023-04-30T12:08:49.249Z,0.57
2023-04-30T12:09:49.255Z,0.53
2023-04-30T12:10:49.282Z,0.53
2023-04-30T12:11:49.254Z,0.54
2023-04-30T12:12:51.241Z,0.56
2023-04-30T12:13:49.317Z,0.58
2023-04-30T12:14:49.287Z,0.54
2023-04-30T12:15:49.300Z,0.61
2023-04-30T12:16:49.598Z,0.57
2023-04-30T12:17:49.278Z,0.58
2023-04-30T12:18:50.698Z,0.60
2023-04-30T12:19:49.534Z,0.58
2023-04-30T12:20:49.536Z,0.60
2023-04-30T12:21:49.549Z,0.59
2023-04-30T12:22:49.562Z,0.57
2023-04-30T12:23:49.570Z,0.59
2023-04-30T12:24:49.606Z,0.59
2023-04-30T12:25:49.661Z,0.61
2023-04-30T12:26:49.621Z,0.62
2023-04-30T12:27:49.628Z,0.62
2023-04-30T12:28:49.617Z,0.60
2023-04-30T12:29:49.656Z,0.59
2023-04-30T12:30:49.630Z,0.57
2023-04-30T12:31:49.727Z,0.63
2023-04-30T12:32:49.729Z,0.57
2023-04-30T12:33:49.678Z,0.62
2023-04-30T12:34:49.650Z,0.61
2023-04-30T12:35:49.697Z,0.61
2023-04-30T12:36:49.676Z,0.60
2023-04-30T12:37:49.741Z,0.59
2023-04-30T12:38:49.758Z,0.60
2023-04-30T12:39:49.764Z,0.56
2023-04-30T12:40:49.735Z,0.54
2023-04-30T12:41:49.825Z,0.56
2023-04-30T12:42:49.757Z,0.59
2023-04-30T12:43:49.749Z,0.62
2023-04-30T12:44:49.775Z,0.56
2023-04-30T12:45:49.873Z,0.57
2023-04-30T12:46:49.812Z,0.55
2023-04-30T12:47:49.882Z,0.57
2023-04-30T12:48:49.837Z,0.54
2023-04-30T12:49:49.829Z,0.53
2023-04-30T12:50:49.836Z,0.59
2023-04-30T12:51:49.863Z,0.61
2023-04-30T12:52:49.864Z,0.62
2023-04-30T12:53:49.877Z,0.55
2023-04-30T12:54:49.890Z,0.56
2023-04-30T12:55:49.887Z,0.55
2023-04-30T12:56:49.932Z,0.58
2023-04-30T12:57:50.050Z,0.59
2023-04-30T12:58:50.050Z,0.58
2023-04-30T12:59:49.957Z,0.56
2023-04-30T13:00:56.990Z,0.50
2023-04-30T13:01:49.975Z,0.50
2023-04-30T13:02:50.032Z,0.51
2023-04-30T13:03:50.173Z,0.53
2023-04-30T13:04:49.977Z,0.51
2023-04-30T13:05:49.922Z,0.47
2023-04-30T13:06:50.030Z,0.51
2023-04-30T13:07:49.913Z,0.54
2023-04-30T13:08:58.579Z,0.51
2023-04-30T13:09:50.920Z,0.51
2023-04-30T13:10:49.891Z,0.48
2023-04-30T13:11:49.899Z,0.51
2023-04-30T13:12:49.916Z,0.50
2023-04-30T13:13:49.970Z,0.51
2023-04-30T13:14:49.895Z,0.50
2023-04-30T13:15:49.924Z,0.52
2023-04-30T13:16:49.881Z,0.51
2023-04-30T13:17:49.858Z,0.50
2023-04-30T13:18:49.858Z,0.51
2023-04-30T13:19:49.820Z,0.52
2023-04-30T13:20:49.817Z,0.50
2023-04-30T13:21:49.822Z,0.54